This is the latest recevied weather packets stored in our database for station/object OE3CJB-13. If no packets are shown the sender has not sent any weather packets the latest 10 day(s).
| Time | Temp. | Humidity | Pressure | Rain* | Wind** | Luminosity | Snow |
|---|---|---|---|---|---|---|---|
| 1788603311 | 18.89° C | 78% | 1174.5 hPa | 0 mm | - | - | - |
| 1788602467 | 18.33° C | 80% | 1174.5 hPa | 0 mm | - | - | - |
| 1788601535 | 17.78° C | 80% | 1173.9 hPa | 0 mm | - | - | - |
| 1788600623 | 17.78° C | 82% | 1175.1 hPa | 0 mm | - | - | - |
| 1788599773 | 17.78° C | 83% | 1175.1 hPa | 0 mm | - | - | - |
| 1788598849 | 17.22° C | 83% | 1174.2 hPa | 0 mm | - | - | - |
| 1788597934 | 17.22° C | 83% | 1175.1 hPa | 0 mm | - | - | - |
| 1788597028 | 17.22° C | 83% | 1175.1 hPa | 0 mm | - | - | - |
| 1788596165 | 16.67° C | 81% | 1175.3 hPa | 0 mm | - | - | - |
| 1788595249 | 16.67° C | 80% | 1176.2 hPa | 0 mm | - | - | - |
| 1788594334 | 16.67° C | 80% | 1175.3 hPa | 0 mm | - | - | - |
| 1788593423 | 16.67° C | 80% | 1176.1 hPa | 0 mm | - | - | - |
| 1788592565 | 16.67° C | 77% | 1176.1 hPa | 0 mm | - | - | - |
| 1788591649 | 16.67° C | 75% | 1176.2 hPa | 0 mm | - | - | - |
| 1788590735 | 16.67° C | 74% | 1177.2 hPa | 0 mm | - | - | - |
| 1788589823 | 16.67° C | 68% | 1177.9 hPa | 0 mm | - | - | - |
| 1788588965 | 17.22° C | 66% | 1177.3 hPa | 0 mm | - | - | - |
| 1788588067 | 17.22° C | 62% | 1176.7 hPa | 0 mm | - | - | - |
| 1788587135 | 18.33° C | 47% | 1178.1 hPa | 0 mm | - | - | - |
| 1788586224 | 20° C | 41% | 1178.2 hPa | 0 mm | - | - | - |
| 1788585365 | 20.56° C | 39% | 1177.2 hPa | 0 mm | - | - | - |
| 1788584448 | 20° C | 44% | 1177.4 hPa | 0 mm | - | - | - |
| 1788583534 | 20° C | 51% | 1176.5 hPa | 0 mm | - | - | - |
| 1788582623 | 20.56° C | 52% | 1177 hPa | 0 mm | - | - | - |
| 1788581765 | 21.11° C | 50% | 1176.9 hPa | 0 mm | - | - | - |
* Rain latest hour (hover to see other rain measurements)
** Current wind speed in m/s (hover to see current wind gust speed)